Time,TemperatureF,DewpointF,PressureIn,WindDirection,WindDirectionDegrees,WindSpeedMPH,WindSpeedGustMPH,Humidity,HourlyPrecipIn,Conditions,Clouds,dailyrainin,SoftwareType,DateUTC
2015-03-31 00:11:00,49.1,43.0,29.99,SE,143,0.0,-999.0,79,-99.99,,,0.00,weatherlink.com 1.10,2015-03-31 07:11:00,
2015-03-31 00:26:00,49.1,44.0,29.98,SE,143,0.0,-999.0,82,-99.99,,,0.00,weatherlink.com 1.10,2015-03-31 07:26:00,
2015-03-31 00:41:00,49.2,44.0,29.98,SE,143,0.0,-999.0,81,-99.99,,,0.00,weatherlink.com 1.10,2015-03-31 07:41:00,
2015-03-31 00:56:00,49.5,44.0,29.97,NNW,336,0.0,-999.0,80,-99.99,,,0.00,weatherlink.com 1.10,2015-03-31 07:56:00,
2015-03-31 01:11:00,49.9,44.0,29.97,ESE,110,0.0,-999.0,79,-99.99,,,0.00,weatherlink.com 1.10,2015-03-31 08:11:00,
2015-03-31 01:41:00,50.4,44.0,29.96,SSE,164,0.0,-999.0,79,-99.99,,,0.00,weatherlink.com 1.10,2015-03-31 08:41:00,
2015-03-31 01:56:00,50.7,44.0,29.95,NNW,338,0.0,-999.0,79,-99.99,,,0.00,weatherlink.com 1.10,2015-03-31 08:56:00,
2015-03-31 02:11:00,50.8,45.0,29.95,South,170,0.0,-999.0,79,-99.99,,,0.00,weatherlink.com 1.10,2015-03-31 09:11:00,
2015-03-31 02:26:00,50.8,45.0,29.95,WNW,284,0.0,-999.0,80,-99.99,,,0.00,weatherlink.com 1.10,2015-03-31 09:26:00,
2015-03-31 02:41:00,50.7,45.0,29.95,WSW,246,0.0,-999.0,82,-99.99,,,0.00,weatherlink.com 1.10,2015-03-31 09:41:00,
2015-03-31 02:56:00,50.4,45.0,29.95,SSW,193,0.0,-999.0,83,-99.99,,,0.00,weatherlink.com 1.10,2015-03-31 09:56:00,
2015-03-31 03:11:00,50.2,46.0,29.95,SSW,193,0.0,-999.0,85,-99.99,,,0.00,weatherlink.com 1.10,2015-03-31 10:11:00,
2015-03-31 03:26:00,49.9,46.0,29.95,SSW,193,0.0,-999.0,87,-99.99,,,0.00,weatherlink.com 1.10,2015-03-31 10:26:00,
2015-03-31 03:41:00,49.4,46.0,29.95,SSW,193,0.0,-999.0,89,-99.99,,,0.00,weatherlink.com 1.10,2015-03-31 10:41:00,
2015-03-31 03:57:00,49.2,47.0,29.95,SSE,160,2.0,-999.0,90,-99.99,,,0.00,weatherlink.com 1.10,2015-03-31 10:57:00,
2015-03-31 04:11:00,49.2,47.0,29.96,SSE,159,0.0,-999.0,90,-99.99,,,0.00,weatherlink.com 1.10,2015-03-31 11:11:00,
2015-03-31 04:26:00,49.2,46.0,29.97,SSE,160,0.0,-999.0,88,-99.99,,,0.00,weatherlink.com 1.10,2015-03-31 11:26:00,
2015-03-31 04:41:00,49.2,45.0,29.97,SSE,159,1.0,-999.0,85,-99.99,,,0.00,weatherlink.com 1.10,2015-03-31 11:41:00,
2015-03-31 04:56:00,49.1,45.0,29.98,SSE,159,0.0,-999.0,86,-99.99,,,0.00,weatherlink.com 1.10,2015-03-31 11:56:00,
2015-03-31 05:11:00,48.6,45.0,29.99,SSE,159,0.0,-999.0,87,-99.99,,,0.00,weatherlink.com 1.10,2015-03-31 12:11:00,
2015-03-31 05:27:00,48.2,45.0,30.00,SSE,159,0.0,-999.0,88,-99.99,,,0.00,weatherlink.com 1.10,2015-03-31 12:27:00,
2015-03-31 05:42:00,47.9,45.0,30.01,SSE,159,0.0,-999.0,88,-99.99,,,0.00,weatherlink.com 1.10,2015-03-31 12:42:00,
2015-03-31 05:57:00,47.7,44.0,30.01,SSE,159,0.0,-999.0,87,-99.99,,,0.00,weatherlink.com 1.10,2015-03-31 12:57:00,
2015-03-31 06:12:00,47.6,44.0,30.02,ESE,113,0.0,-999.0,86,-99.99,,,0.00,weatherlink.com 1.10,2015-03-31 13:12:00,
2015-03-31 06:27:00,47.4,43.0,30.03,South,175,0.0,-999.0,86,-99.99,,,0.00,weatherlink.com 1.10,2015-03-31 13:27:00,
2015-03-31 06:42:00,47.3,44.0,30.05,South,175,0.0,-999.0,88,-99.99,,,0.00,weatherlink.com 1.10,2015-03-31 13:42:00,
2015-03-31 06:57:00,46.4,43.0,30.06,ENE,67,2.0,-999.0,89,-99.99,,,0.00,weatherlink.com 1.10,2015-03-31 13:57:00,
2015-03-31 07:12:00,45.7,42.0,30.07,SSE,164,1.0,-999.0,85,-99.99,,,0.00,weatherlink.com 1.10,2015-03-31 14:12:00,
2015-03-31 07:27:00,45.5,41.0,30.09,South,172,1.0,-999.0,84,-99.99,,,0.00,weatherlink.com 1.10,2015-03-31 14:27:00,
2015-03-31 07:42:00,45.2,40.0,30.11,South,172,0.0,-999.0,82,-99.99,,,0.00,weatherlink.com 1.10,2015-03-31 14:42:00,
2015-03-31 07:57:00,45.2,40.0,30.11,South,172,0.0,-999.0,81,-99.99,,,0.00,weatherlink.com 1.10,2015-03-31 14:57:00,
2015-03-31 08:12:00,46.2,40.0,30.12,ESE,106,1.0,-999.0,80,-99.99,,,0.00,weatherlink.com 1.10,2015-03-31 15:12:00,
2015-03-31 08:27:00,47.6,40.0,30.14,SSE,164,1.0,-999.0,76,-99.99,,,0.00,weatherlink.com 1.10,2015-03-31 15:27:00,
2015-03-31 08:42:00,48.6,40.0,30.13,East,99,1.0,-999.0,72,-99.99,,,0.00,weatherlink.com 1.10,2015-03-31 15:42:00,
2015-03-31 08:57:00,49.1,40.0,30.14,SSE,168,0.0,-999.0,72,-99.99,,,0.00,weatherlink.com 1.10,2015-03-31 15:57:00,
2015-03-31 09:12:00,48.8,42.0,30.14,SW,234,2.0,-999.0,77,-99.99,,,0.02,weatherlink.com 1.10,2015-03-31 16:12:00,
2015-03-31 09:27:00,46.1,41.0,30.15,West,267,0.0,-999.0,83,-99.99,,,0.03,weatherlink.com 1.10,2015-03-31 16:27:00,
2015-03-31 09:42:00,46.7,43.0,30.16,SSE,166,1.0,-999.0,87,-99.99,,,0.03,weatherlink.com 1.10,2015-03-31 16:42:00,
2015-03-31 09:57:00,48.9,42.0,30.16,SW,223,2.0,-999.0,78,-99.99,,,0.03,weatherlink.com 1.10,2015-03-31 16:57:00,
2015-03-31 10:12:00,49.4,42.0,30.16,East,82,0.0,-999.0,77,-99.99,,,0.03,weatherlink.com 1.10,2015-03-31 17:12:00,
2015-03-31 10:27:00,48.8,42.0,30.17,East,86,1.0,-999.0,78,-99.99,,,0.03,weatherlink.com 1.10,2015-03-31 17:27:00,
2015-03-31 10:42:00,49.8,42.0,30.17,East,80,2.0,-999.0,75,-99.99,,,0.03,weatherlink.com 1.10,2015-03-31 17:42:00,
2015-03-31 10:57:00,51.4,42.0,30.17,SSE,161,1.0,-999.0,69,-99.99,,,0.03,weatherlink.com 1.10,2015-03-31 17:57:00,
2015-03-31 11:12:00,52.3,44.0,30.18,South,179,1.0,-999.0,73,-99.99,,,0.03,weatherlink.com 1.10,2015-03-31 18:12:00,
2015-03-31 11:27:00,52.9,41.0,30.17,ESE,122,1.0,-999.0,64,-99.99,,,0.03,weatherlink.com 1.10,2015-03-31 18:27:00,
2015-03-31 11:42:00,51.6,40.0,30.18,WNW,294,3.0,-999.0,65,-99.99,,,0.03,weatherlink.com 1.10,2015-03-31 18:42:00,
2015-03-31 11:57:00,48.3,41.0,30.19,South,175,1.0,-999.0,77,-99.99,,,0.04,weatherlink.com 1.10,2015-03-31 18:57:00,
2015-03-31 12:12:00,46.0,41.0,30.21,NW,306,1.0,-999.0,84,-99.99,,,0.05,weatherlink.com 1.10,2015-03-31 19:12:00,
2015-03-31 12:27:00,47.7,45.0,30.21,NW,325,3.0,-999.0,89,-99.99,,,0.06,weatherlink.com 1.10,2015-03-31 19:27:00,
2015-03-31 12:42:00,52.0,46.0,30.20,NE,34,3.0,-999.0,80,-99.99,,,0.06,weatherlink.com 1.10,2015-03-31 19:42:00,
2015-03-31 12:57:00,52.8,45.0,30.20,SSW,199,4.0,-999.0,74,-99.99,,,0.06,weatherlink.com 1.10,2015-03-31 19:57:00,
2015-03-31 13:12:00,52.5,42.0,30.20,West,279,3.0,-999.0,67,-99.99,,,0.06,weatherlink.com 1.10,2015-03-31 20:12:00,
2015-03-31 13:27:00,50.4,43.0,30.20,WNW,287,2.0,-999.0,75,-99.99,,,0.07,weatherlink.com 1.10,2015-03-31 20:27:00,
2015-03-31 13:42:00,50.8,45.0,30.21,West,271,2.0,-999.0,79,-99.99,,,0.08,weatherlink.com 1.10,2015-03-31 20:42:00,
2015-03-31 13:57:00,53.8,43.0,30.20,West,259,0.0,-999.0,67,-99.99,,,0.08,weatherlink.com 1.10,2015-03-31 20:57:00,
2015-03-31 14:12:00,54.2,42.0,30.20,WNW,303,3.0,-999.0,63,-99.99,,,0.08,weatherlink.com 1.10,2015-03-31 21:12:00,
2015-03-31 14:27:00,54.4,39.0,30.20,WNW,300,12.0,-999.0,56,-99.99,,,0.08,weatherlink.com 1.10,2015-03-31 21:27:00,
2015-03-31 14:42:00,54.2,40.0,30.20,SW,216,1.0,-999.0,60,-99.99,,,0.08,weatherlink.com 1.10,2015-03-31 21:42:00,
2015-03-31 14:58:00,55.7,40.0,30.20,WNW,292,2.0,-999.0,57,-99.99,,,0.08,weatherlink.com 1.10,2015-03-31 21:58:00,
2015-03-31 15:13:00,54.4,40.0,30.19,WSW,250,9.0,-999.0,58,-99.99,,,0.08,weatherlink.com 1.10,2015-03-31 22:13:00,
2015-03-31 15:28:00,52.2,38.0,30.20,West,277,2.0,-999.0,58,-99.99,,,0.08,weatherlink.com 1.10,2015-03-31 22:28:00,
2015-03-31 15:43:00,54.1,37.0,30.20,SE,128,1.0,-999.0,53,-99.99,,,0.08,weatherlink.com 1.10,2015-03-31 22:43:00,
2015-03-31 15:58:00,55.3,36.0,30.20,West,260,3.0,-999.0,49,-99.99,,,0.08,weatherlink.com 1.10,2015-03-31 22:58:00,
2015-03-31 16:13:00,55.0,39.0,30.19,South,176,2.0,-999.0,56,-99.99,,,0.08,weatherlink.com 1.10,2015-03-31 23:13:00,
2015-03-31 16:28:00,52.8,39.0,30.20,WNW,284,2.0,-999.0,60,-99.99,,,0.08,weatherlink.com 1.10,2015-03-31 23:28:00,
2015-03-31 16:43:00,52.9,40.0,30.20,SSE,155,2.0,-999.0,61,-99.99,,,0.08,weatherlink.com 1.10,2015-03-31 23:43:00,
2015-03-31 16:58:00,52.6,38.0,30.20,WNW,302,1.0,-999.0,59,-99.99,,,0.08,weatherlink.com 1.10,2015-03-31 23:58:00,
2015-03-31 17:13:00,52.3,39.0,30.20,West,261,0.0,-999.0,60,-99.99,,,0.08,weatherlink.com 1.10,2015-04-01 00:13:00,
2015-03-31 17:28:00,52.6,38.0,30.20,SW,214,2.0,-999.0,58,-99.99,,,0.08,weatherlink.com 1.10,2015-04-01 00:28:00,
2015-03-31 17:43:00,52.0,37.0,30.20,West,277,3.0,-999.0,58,-99.99,,,0.08,weatherlink.com 1.10,2015-04-01 00:43:00,
2015-03-31 17:58:00,49.6,41.0,30.21,WNW,292,0.0,-999.0,71,-99.99,,,0.08,weatherlink.com 1.10,2015-04-01 00:58:00,
2015-03-31 18:13:00,48.8,40.0,30.22,ENE,73,0.0,-999.0,73,-99.99,,,0.08,weatherlink.com 1.10,2015-04-01 01:13:00,